sensor_id;sensor_type;location;lat;lon;timestamp;pressure;altitude;pressure_sealevel;temperature;humidity
8140;BME280;4111;50.972;7.072;2023-04-08T00:00:48;101676.31;;;10.20;100.00
8140;BME280;4111;50.972;7.072;2023-04-08T00:03:15;101673.16;;;10.23;100.00
8140;BME280;4111;50.972;7.072;2023-04-08T00:05:41;101671.28;;;10.23;100.00
8140;BME280;4111;50.972;7.072;2023-04-08T00:08:08;101669.00;;;10.20;100.00
8140;BME280;4111;50.972;7.072;2023-04-08T00:10:34;101674.22;;;10.22;100.00
8140;BME280;4111;50.972;7.072;2023-04-08T00:13:01;101683.78;;;10.24;100.00
8140;BME280;4111;50.972;7.072;2023-04-08T00:15:28;101675.03;;;10.22;100.00
8140;BME280;4111;50.972;7.072;2023-04-08T00:17:54;101676.31;;;10.20;100.00
8140;BME280;4111;50.972;7.072;2023-04-08T00:20:22;101678.63;;;10.16;100.00
8140;BME280;4111;50.972;7.072;2023-04-08T00:22:49;101675.84;;;10.23;100.00
8140;BME280;4111;50.972;7.072;2023-04-08T00:25:15;101679.22;;;10.25;100.00
8140;BME280;4111;50.972;7.072;2023-04-08T00:27:42;101677.97;;;10.21;100.00
8140;BME280;4111;50.972;7.072;2023-04-08T00:30:08;101680.06;;;10.19;100.00
8140;BME280;4111;50.972;7.072;2023-04-08T00:32:35;101680.69;;;10.21;100.00
8140;BME280;4111;50.972;7.072;2023-04-08T00:35:02;101678.22;;;10.19;100.00
8140;BME280;4111;50.972;7.072;2023-04-08T00:37:28;101682.56;;;10.20;100.00
8140;BME280;4111;50.972;7.072;2023-04-08T00:39:56;101681.56;;;10.15;100.00
8140;BME280;4111;50.972;7.072;2023-04-08T00:42:22;101678.44;;;10.18;100.00
8140;BME280;4111;50.972;7.072;2023-04-08T00:44:49;101679.91;;;10.13;100.00
8140;BME280;4111;50.972;7.072;2023-04-08T00:47:15;101675.53;;;10.12;100.00
8140;BME280;4111;50.972;7.072;2023-04-08T00:49:42;101684.75;;;10.11;100.00
8140;BME280;4111;50.972;7.072;2023-04-08T00:52:09;101681.34;;;10.16;100.00
8140;BME280;4111;50.972;7.072;2023-04-08T00:54:36;101678.81;;;10.21;100.00
8140;BME280;4111;50.972;7.072;2023-04-08T00:57:03;101683.19;;;10.22;100.00
8140;BME280;4111;50.972;7.072;2023-04-08T00:59:31;101677.81;;;10.16;100.00
8140;BME280;4111;50.972;7.072;2023-04-08T01:07:28;101682.97;;;10.24;100.00
8140;BME280;4111;50.972;7.072;2023-04-08T01:10:01;101685.06;;;10.22;100.00
8140;BME280;4111;50.972;7.072;2023-04-08T01:12:31;101692.78;;;10.25;100.00
8140;BME280;4111;50.972;7.072;2023-04-08T01:15:03;101694.66;;;10.24;100.00
8140;BME280;4111;50.972;7.072;2023-04-08T01:17:31;101682.56;;;10.20;100.00
8140;BME280;4111;50.972;7.072;2023-04-08T01:20:00;101685.50;;;10.19;100.00
8140;BME280;4111;50.972;7.072;2023-04-08T01:22:59;101688.41;;;10.24;100.00
8140;BME280;4111;50.972;7.072;2023-04-08T01:25:33;101689.06;;;10.19;100.00
8140;BME280;4111;50.972;7.072;2023-04-08T01:28:03;101685.28;;;10.20;100.00
8140;BME280;4111;50.972;7.072;2023-04-08T01:30:31;101686.09;;;10.21;100.00
8140;BME280;4111;50.972;7.072;2023-04-08T01:33:01;101691.38;;;10.16;100.00
8140;BME280;4111;50.972;7.072;2023-04-08T01:35:29;101691.38;;;10.16;100.00
8140;BME280;4111;50.972;7.072;2023-04-08T01:37:56;101693.50;;;10.13;100.00
8140;BME280;4111;50.972;7.072;2023-04-08T01:40:23;101691.66;;;10.07;100.00
8140;BME280;4111;50.972;7.072;2023-04-08T01:42:52;101694.75;;;10.11;100.00
8140;BME280;4111;50.972;7.072;2023-04-08T01:45:20;101692.69;;;10.06;100.00
8140;BME280;4111;50.972;7.072;2023-04-08T01:47:48;101699.41;;;10.04;100.00
8140;BME280;4111;50.972;7.072;2023-04-08T01:50:15;101703.56;;;10.06;100.00
8140;BME280;4111;50.972;7.072;2023-04-08T01:52:43;101687.72;;;10.03;100.00
8140;BME280;4111;50.972;7.072;2023-04-08T01:55:10;101692.31;;;10.03;100.00
8140;BME280;4111;50.972;7.072;2023-04-08T01:57:38;101696.84;;;10.09;100.00
8140;BME280;4111;50.972;7.072;2023-04-08T02:00:11;101703.13;;;10.09;100.00
8140;BME280;4111;50.972;7.072;2023-04-08T02:02:41;101692.09;;;10.04;100.00
8140;BME280;4111;50.972;7.072;2023-04-08T02:05:09;101708.56;;;10.03;100.00
8140;BME280;4111;50.972;7.072;2023-04-08T02:07:35;101702.50;;;10.07;100.00
8140;BME280;4111;50.972;7.072;2023-04-08T02:10:02;101707.34;;;10.05;100.00
8140;BME280;4111;50.972;7.072;2023-04-08T02:12:29;101699.19;;;10.05;100.00
8140;BME280;4111;50.972;7.072;2023-04-08T02:14:56;101701.91;;;10.05;100.00
8140;BME280;4111;50.972;7.072;2023-04-08T02:17:48;101704.38;;;10.07;100.00
8140;BME280;4111;50.972;7.072;2023-04-08T02:20:26;101715.91;;;10.02;100.00
8140;BME280;4111;50.972;7.072;2023-04-08T02:23:04;101703.81;;;9.98;100.00
8140;BME280;4111;50.972;7.072;2023-04-08T02:25:34;101708.81;;;10.01;100.00
8140;BME280;4111;50.972;7.072;2023-04-08T02:28:05;101713.19;;;10.02;100.00
8140;BME280;4111;50.972;7.072;2023-04-08T02:30:33;101709.03;;;10.00;100.00
8140;BME280;4111;50.972;7.072;2023-04-08T02:33:03;101709.25;;;9.98;100.00
8140;BME280;4111;50.972;7.072;2023-04-08T02:35:30;101708.41;;;9.98;100.00
8140;BME280;4111;50.972;7.072;2023-04-08T02:37:57;101712.84;;;9.92;100.00
8140;BME280;4111;50.972;7.072;2023-04-08T02:40:29;101708.63;;;9.96;100.00
8140;BME280;4111;50.972;7.072;2023-04-08T02:42:57;101710.94;;;9.99;100.00
8140;BME280;4111;50.972;7.072;2023-04-08T02:45:30;101710.69;;;10.01;100.00
8140;BME280;4111;50.972;7.072;2023-04-08T02:48:00;101705.25;;;10.01;100.00
8140;BME280;4111;50.972;7.072;2023-04-08T02:50:27;101708.81;;;10.01;100.00
8140;BME280;4111;50.972;7.072;2023-04-08T02:52:54;101706.97;;;9.95;100.00
8140;BME280;4111;50.972;7.072;2023-04-08T02:55:20;101715.09;;;9.95;100.00
8140;BME280;4111;50.972;7.072;2023-04-08T02:57:47;101716.97;;;9.95;100.00
8140;BME280;4111;50.972;7.072;2023-04-08T03:00:14;101717.66;;;9.90;100.00
8140;BME280;4111;50.972;7.072;2023-04-08T03:02:41;101712.22;;;9.90;100.00
8140;BME280;4111;50.972;7.072;2023-04-08T03:05:08;101722.63;;;9.93;100.00
8140;BME280;4111;50.972;7.072;2023-04-08T03:07:35;101717.25;;;9.86;100.00
8140;BME280;4111;50.972;7.072;2023-04-08T03:10:02;101714.53;;;9.86;100.00
8140;BME280;4111;50.972;7.072;2023-04-08T03:12:28;101715.34;;;9.87;100.00
8140;BME280;4111;50.972;7.072;2023-04-08T03:14:54;101716.41;;;9.86;100.00
8140;BME280;4111;50.972;7.072;2023-04-08T03:17:21;101714.97;;;9.83;100.00
8140;BME280;4111;50.972;7.072;2023-04-08T03:19:47;101719.13;;;9.86;100.00
8140;BME280;4111;50.972;7.072;2023-04-08T03:22:14;101714.13;;;9.83;100.00
8140;BME280;4111;50.972;7.072;2023-04-08T03:24:40;101715.41;;;9.80;100.00
8140;BME280;4111;50.972;7.072;2023-04-08T03:27:07;101714.59;;;9.73;100.00
8140;BME280;4111;50.972;7.072;2023-04-08T03:29:33;101721.88;;;9.79;100.00
8140;BME280;4111;50.972;7.072;2023-04-08T03:32:00;101721.66;;;9.81;100.00
8140;BME280;4111;50.972;7.072;2023-04-08T03:34:27;101730.84;;;9.80;100.00
8140;BME280;4111;50.972;7.072;2023-04-08T03:36:53;101726.06;;;9.82;100.00
8140;BME280;4111;50.972;7.072;2023-04-08T03:39:20;101731.91;;;9.79;100.00
8140;BME280;4111;50.972;7.072;2023-04-08T03:41:47;101728.16;;;9.80;100.00
8140;BME280;4111;50.972;7.072;2023-04-08T03:44:13;101717.94;;;9.75;100.00
8140;BME280;4111;50.972;7.072;2023-04-08T03:46:39;101727.09;;;9.81;100.00
8140;BME280;4111;50.972;7.072;2023-04-08T03:49:06;101734.19;;;9.82;100.00
8140;BME280;4111;50.972;7.072;2023-04-08T03:51:32;101723.34;;;9.82;100.00
8140;BME280;4111;50.972;7.072;2023-04-08T03:53:59;101730.84;;;9.80;100.00
8140;BME280;4111;50.972;7.072;2023-04-08T03:56:25;101719.56;;;9.83;100.00
8140;BME280;4111;50.972;7.072;2023-04-08T03:58:52;101728.75;;;9.82;100.00
8140;BME280;4111;50.972;7.072;2023-04-08T04:01:18;101727.94;;;9.75;100.00
8140;BME280;4111;50.972;7.072;2023-04-08T04:03:45;101723.97;;;9.77;100.00
8140;BME280;4111;50.972;7.072;2023-04-08T04:06:11;101724.97;;;9.83;100.00
8140;BME280;4111;50.972;7.072;2023-04-08T04:08:38;101725.59;;;9.85;100.00
8140;BME280;4111;50.972;7.072;2023-04-08T04:11:04;101734.34;;;9.87;100.00
8140;BME280;4111;50.972;7.072;2023-04-08T04:13:31;101727.28;;;9.86;100.00
8140;BME280;4111;50.972;7.072;2023-04-08T04:15:57;101729.78;;;9.81;100.00
8140;BME280;4111;50.972;7.072;2023-04-08T04:18:24;101727.28;;;9.79;100.00
8140;BME280;4111;50.972;7.072;2023-04-08T04:20:50;101729.19;;;9.79;100.00
8140;BME280;4111;50.972;7.072;2023-04-08T04:23:16;101736.03;;;9.81;100.00
8140;BME280;4111;50.972;7.072;2023-04-08T04:25:43;101730.84;;;9.80;100.00
8140;BME280;4111;50.972;7.072;2023-04-08T04:28:09;101739.63;;;9.82;100.00
8140;BME280;4111;50.972;7.072;2023-04-08T04:30:37;101743.34;;;9.81;100.00
8140;BME280;4111;50.972;7.072;2023-04-08T04:33:04;101738.81;;;9.75;100.00
8140;BME280;4111;50.972;7.072;2023-04-08T04:35:31;101738.00;;;9.67;100.00
8140;BME280;4111;50.972;7.072;2023-04-08T04:37:58;101737.97;;;9.74;100.00
8140;BME280;4111;50.972;7.072;2023-04-08T04:40:24;101740.06;;;9.72;100.00
8140;BME280;4111;50.972;7.072;2023-04-08T04:42:51;101744.66;;;9.71;100.00
8140;BME280;4111;50.972;7.072;2023-04-08T04:45:17;101753.22;;;9.68;100.00
8140;BME280;4111;50.972;7.072;2023-04-08T04:47:44;101744.03;;;9.69;100.00
8140;BME280;4111;50.972;7.072;2023-04-08T04:50:10;101750.53;;;9.68;100.00
8140;BME280;4111;50.972;7.072;2023-04-08T04:52:37;101749.91;;;9.66;100.00
8140;BME280;4111;50.972;7.072;2023-04-08T04:55:03;101748.84;;;9.67;100.00
8140;BME280;4111;50.972;7.072;2023-04-08T04:57:30;101755.50;;;9.71;100.00
8140;BME280;4111;50.972;7.072;2023-04-08T04:59:57;101748.81;;;9.74;100.00
8140;BME280;4111;50.972;7.072;2023-04-08T05:02:23;101754.88;;;9.69;100.00
8140;BME280;4111;50.972;7.072;2023-04-08T05:04:51;101749.72;;;9.61;100.00
8140;BME280;4111;50.972;7.072;2023-04-08T05:07:18;101753.03;;;9.63;100.00
8140;BME280;4111;50.972;7.072;2023-04-08T05:09:45;101753.06;;;9.57;100.00
8140;BME280;4111;50.972;7.072;2023-04-08T05:12:11;101755.38;;;9.53;100.00
8140;BME280;4111;50.972;7.072;2023-04-08T05:14:38;101759.38;;;9.44;100.00
8140;BME280;4111;50.972;7.072;2023-04-08T05:17:04;101761.94;;;9.25;100.00
8140;BME280;4111;50.972;7.072;2023-04-08T05:19:31;101764.47;;;9.20;100.00
8140;BME280;4111;50.972;7.072;2023-04-08T05:21:58;101767.16;;;9.13;100.00
8140;BME280;4111;50.972;7.072;2023-04-08T05:24:24;101773.22;;;9.22;100.00
8140;BME280;4111;50.972;7.072;2023-04-08T05:26:50;101771.94;;;9.25;100.00
8140;BME280;4111;50.972;7.072;2023-04-08T05:29:18;101768.19;;;9.32;100.00
8140;BME280;4111;50.972;7.072;2023-04-08T05:31:46;101773.16;;;9.36;100.00
8140;BME280;4111;50.972;7.072;2023-04-08T05:34:13;101779.81;;;9.40;100.00
8140;BME280;4111;50.972;7.072;2023-04-08T05:36:40;101782.78;;;9.25;100.00
8140;BME280;4111;50.972;7.072;2023-04-08T05:39:07;101786.16;;;9.20;100.00
8140;BME280;4111;50.972;7.072;2023-04-08T05:41:33;101784.03;;;9.29;100.00
8140;BME280;4111;50.972;7.072;2023-04-08T05:44:00;101791.09;;;9.37;100.00
8140;BME280;4111;50.972;7.072;2023-04-08T05:46:26;101793.56;;;9.45;100.00
8140;BME280;4111;50.972;7.072;2023-04-08T05:48:53;101796.69;;;9.42;100.00
8140;BME280;4111;50.972;7.072;2023-04-08T05:51:19;101798.63;;;9.21;100.00
8140;BME280;4111;50.972;7.072;2023-04-08T05:53:46;101797.81;;;9.14;100.00
8140;BME280;4111;50.972;7.072;2023-04-08T05:56:12;101801.13;;;9.16;100.00
8140;BME280;4111;50.972;7.072;2023-04-08T05:58:38;101804.69;;;9.17;100.00
8140;BME280;4111;50.972;7.072;2023-04-08T06:01:05;101809.06;;;9.24;100.00
8140;BME280;4111;50.972;7.072;2023-04-08T06:03:32;101803.63;;;9.31;100.00
8140;BME280;4111;50.972;7.072;2023-04-08T06:05:59;101811.34;;;9.27;100.00
8140;BME280;4111;50.972;7.072;2023-04-08T06:08:25;101810.31;;;9.28;100.00
8140;BME280;4111;50.972;7.072;2023-04-08T06:10:52;101817.56;;;9.28;100.00
8140;BME280;4111;50.972;7.072;2023-04-08T06:13:18;101816.56;;;9.22;100.00
8140;BME280;4111;50.972;7.072;2023-04-08T06:15:46;101818.66;;;9.20;100.00
8140;BME280;4111;50.972;7.072;2023-04-08T06:18:15;101825.75;;;9.15;100.00
8140;BME280;4111;50.972;7.072;2023-04-08T06:20:42;101833.66;;;9.16;100.00
8140;BME280;4111;50.972;7.072;2023-04-08T06:23:08;101823.66;;;9.17;100.00
8140;BME280;4111;50.972;7.072;2023-04-08T06:25:35;101828.66;;;9.26;100.00
8140;BME280;4111;50.972;7.072;2023-04-08T06:28:01;101829.66;;;9.32;100.00
8140;BME280;4111;50.972;7.072;2023-04-08T06:30:28;101831.53;;;9.45;100.00
8140;BME280;4111;50.972;7.072;2023-04-08T06:32:54;101844.06;;;9.32;100.00
8140;BME280;4111;50.972;7.072;2023-04-08T06:35:21;101829.47;;;9.33;100.00
8140;BME280;4111;50.972;7.072;2023-04-08T06:37:47;101831.53;;;9.45;100.00
8140;BME280;4111;50.972;7.072;2023-04-08T06:40:13;101835.28;;;9.50;100.00
8140;BME280;4111;50.972;7.072;2023-04-08T06:42:40;101837.38;;;9.48;100.00
8140;BME280;4111;50.972;7.072;2023-04-08T06:45:09;101837.56;;;9.47;100.00
8140;BME280;4111;50.972;7.072;2023-04-08T06:47:35;101833.63;;;9.43;100.00
8140;BME280;4111;50.972;7.072;2023-04-08T06:50:02;101839.88;;;9.37;100.00
8140;BME280;4111;50.972;7.072;2023-04-08T06:52:28;101846.75;;;9.46;100.00
8140;BME280;4111;50.972;7.072;2023-04-08T06:54:55;101846.53;;;9.47;100.00
8140;BME280;4111;50.972;7.072;2023-04-08T06:57:21;101853.22;;;9.45;100.00
8140;BME280;4111;50.972;7.072;2023-04-08T06:59:47;101853.63;;;9.42;100.00
8140;BME280;4111;50.972;7.072;2023-04-08T07:02:14;101852.81;;;9.48;100.00
8140;BME280;4111;50.972;7.072;2023-04-08T07:04:41;101854.03;;;9.45;100.00
8140;BME280;4111;50.972;7.072;2023-04-08T07:07:09;101852.19;;;9.46;100.00
8140;BME280;4111;50.972;7.072;2023-04-08T07:09:35;101850.91;;;9.42;100.00
8140;BME280;4111;50.972;7.072;2023-04-08T07:12:02;101860.09;;;9.41;100.00
8140;BME280;4111;50.972;7.072;2023-04-08T07:14:30;101855.91;;;9.58;100.00
8140;BME280;4111;50.972;7.072;2023-04-08T07:16:56;101856.13;;;9.50;100.00
8140;BME280;4111;50.972;7.072;2023-04-08T07:19:23;101857.38;;;9.54;100.00
8140;BME280;4111;50.972;7.072;2023-04-08T07:21:50;101857.31;;;9.67;100.00
8140;BME280;4111;50.972;7.072;2023-04-08T07:24:17;101861.69;;;9.75;100.00
8140;BME280;4111;50.972;7.072;2023-04-08T07:26:44;101861.22;;;9.91;100.00
8140;BME280;4111;50.972;7.072;2023-04-08T07:29:10;101871.38;;;10.03;100.00
8140;BME280;4111;50.972;7.072;2023-04-08T07:31:37;101868.91;;;9.95;100.00
8140;BME280;4111;50.972;7.072;2023-04-08T07:34:03;101882.31;;;9.83;100.00
8140;BME280;4111;50.972;7.072;2023-04-08T07:36:30;101874.19;;;9.83;100.00
8140;BME280;4111;50.972;7.072;2023-04-08T07:38:57;101877.78;;;9.63;100.00
8140;BME280;4111;50.972;7.072;2023-04-08T07:41:23;101878.56;;;9.77;100.00
8140;BME280;4111;50.972;7.072;2023-04-08T07:43:49;101873.06;;;9.97;100.00
8140;BME280;4111;50.972;7.072;2023-04-08T07:46:16;101883.94;;;9.97;100.00
8140;BME280;4111;50.972;7.072;2023-04-08T07:48:42;101887.66;;;10.03;100.00
8140;BME280;4111;50.972;7.072;2023-04-08T07:51:09;101890.22;;;9.98;100.00
8140;BME280;4111;50.972;7.072;2023-04-08T07:53:38;101888.53;;;10.03;100.00
8140;BME280;4111;50.972;7.072;2023-04-08T07:56:13;101894.94;;;10.16;100.00
8140;BME280;4111;50.972;7.072;2023-04-08T07:58:40;101899.53;;;10.15;100.00
8140;BME280;4111;50.972;7.072;2023-04-08T08:01:15;101905.53;;;10.24;100.00
8140;BME280;4111;50.972;7.072;2023-04-08T08:03:41;101899.75;;;10.13;100.00
8140;BME280;4111;50.972;7.072;2023-04-08T08:06:10;101911.47;;;10.07;100.00
8140;BME280;4111;50.972;7.072;2023-04-08T08:08:36;101906.00;;;10.14;100.00
8140;BME280;4111;50.972;7.072;2023-04-08T08:11:03;101914.34;;;10.12;100.00
8140;BME280;4111;50.972;7.072;2023-04-08T08:13:29;101914.75;;;10.16;100.00
8140;BME280;4111;50.972;7.072;2023-04-08T08:15:56;101915.56;;;10.30;100.00
8140;BME280;4111;50.972;7.072;2023-04-08T08:18:23;101916.19;;;10.39;100.00
8140;BME280;4111;50.972;7.072;2023-04-08T08:20:49;101914.44;;;10.44;100.00
8140;BME280;4111;50.972;7.072;2023-04-08T08:23:16;101922.13;;;10.54;100.00
8140;BME280;4111;50.972;7.072;2023-04-08T08:25:42;101925.09;;;10.52;100.00
8140;BME280;4111;50.972;7.072;2023-04-08T08:28:09;101922.38;;;10.52;100.00
8140;BME280;4111;50.972;7.072;2023-04-08T08:30:35;101925.91;;;10.53;100.00
8140;BME280;4111;50.972;7.072;2023-04-08T08:33:04;101928.91;;;10.38;100.00
8140;BME280;4111;50.972;7.072;2023-04-08T08:35:31;101924.69;;;10.42;100.00
8140;BME280;4111;50.972;7.072;2023-04-08T08:37:57;101930.94;;;10.49;100.00
8140;BME280;4111;50.972;7.072;2023-04-08T08:40:24;101929.50;;;10.47;100.00
8140;BME280;4111;50.972;7.072;2023-04-08T08:42:51;101933.00;;;10.54;100.00
8140;BME280;4111;50.972;7.072;2023-04-08T08:45:21;101937.25;;;10.43;100.00
8140;BME280;4111;50.972;7.072;2023-04-08T08:47:47;101938.97;;;10.31;100.00
8140;BME280;4111;50.972;7.072;2023-04-08T08:50:17;101936.25;;;10.31;100.00
8140;BME280;4111;50.972;7.072;2023-04-08T08:52:47;101938.53;;;10.34;100.00
8140;BME280;4111;50.972;7.072;2023-04-08T08:55:17;101936.78;;;10.46;100.00
8140;BME280;4111;50.972;7.072;2023-04-08T08:58:02;101933.47;;;10.44;100.00
8140;BME280;4111;50.972;7.072;2023-04-08T09:00:36;101938.06;;;10.50;100.00
8140;BME280;4111;50.972;7.072;2023-04-08T09:06:01;101934.69;;;10.48;100.00
8140;BME280;4111;50.972;7.072;2023-04-08T09:08:35;101933.09;;;10.27;100.00
8140;BME280;4111;50.972;7.072;2023-04-08T09:13:39;101943.31;;;10.39;100.00
8140;BME280;4111;50.972;7.072;2023-04-08T09:16:10;101946.66;;;10.41;100.00
8140;BME280;4111;50.972;7.072;2023-04-08T09:18:37;101948.09;;;10.43;100.00
8140;BME280;4111;50.972;7.072;2023-04-08T09:21:05;101952.94;;;10.35;100.00
8140;BME280;4111;50.972;7.072;2023-04-08T09:26:20;101953.84;;;10.67;100.00
8140;BME280;4111;50.972;7.072;2023-04-08T09:28:58;101950.66;;;10.70;100.00
8140;BME280;4111;50.972;7.072;2023-04-08T09:31:32;101956.69;;;10.79;100.00
8140;BME280;4111;50.972;7.072;2023-04-08T09:34:00;101959.81;;;10.82;100.00
8140;BME280;4111;50.972;7.072;2023-04-08T09:36:34;101952.91;;;10.80;100.00
8140;BME280;4111;50.972;7.072;2023-04-08T09:39:01;101960.94;;;11.00;100.00
8140;BME280;4111;50.972;7.072;2023-04-08T09:41:27;101964.78;;;11.17;100.00
8140;BME280;4111;50.972;7.072;2023-04-08T09:43:55;101954.13;;;11.41;100.00
8140;BME280;4111;50.972;7.072;2023-04-08T09:46:32;101953.31;;;11.65;100.00
8140;BME280;4111;50.972;7.072;2023-04-08T09:49:10;101949.09;;;11.88;100.00
8140;BME280;4111;50.972;7.072;2023-04-08T09:52:07;101961.06;;;11.87;99.25
8140;BME280;4111;50.972;7.072;2023-04-08T09:54:50;101957.25;;;11.69;96.84
8140;BME280;4111;50.972;7.072;2023-04-08T09:57:26;101961.94;;;11.81;96.45
8140;BME280;4111;50.972;7.072;2023-04-08T10:00:08;101958.44;;;11.99;96.50
8140;BME280;4111;50.972;7.072;2023-04-08T10:02:59;101954.13;;;11.91;94.03
8140;BME280;4111;50.972;7.072;2023-04-08T10:05:29;101948.78;;;11.78;92.20
8140;BME280;4111;50.972;7.072;2023-04-08T10:07:56;101945.38;;;11.89;92.78
8140;BME280;4111;50.972;7.072;2023-04-08T10:10:25;101948.50;;;11.86;91.86
8140;BME280;4111;50.972;7.072;2023-04-08T10:12:52;101948.16;;;12.01;92.09
8140;BME280;4111;50.972;7.072;2023-04-08T10:15:26;101951.41;;;12.09;92.05
8140;BME280;4111;50.972;7.072;2023-04-08T10:17:54;101953.00;;;12.17;91.23
8140;BME280;4111;50.972;7.072;2023-04-08T10:25:40;101963.19;;;12.40;90.49
8140;BME280;4111;50.972;7.072;2023-04-08T10:33:09;101964.72;;;12.36;88.91
8140;BME280;4111;50.972;7.072;2023-04-08T10:35:40;101968.19;;;12.43;88.85
8140;BME280;4111;50.972;7.072;2023-04-08T10:38:08;101969.38;;;12.47;88.75
8140;BME280;4111;50.972;7.072;2023-04-08T10:40:35;101979.34;;;12.54;88.31
8140;BME280;4111;50.972;7.072;2023-04-08T10:43:07;101972.81;;;12.43;87.36
8140;BME280;4111;50.972;7.072;2023-04-08T10:45:34;101967.72;;;12.46;87.74
8140;BME280;4111;50.972;7.072;2023-04-08T10:48:12;101969.38;;;12.47;87.64
8140;BME280;4111;50.972;7.072;2023-04-08T10:50:39;101968.56;;;12.47;87.40
8140;BME280;4111;50.972;7.072;2023-04-08T10:53:06;101952.97;;;12.54;87.48
8140;BME280;4111;50.972;7.072;2023-04-08T10:55:33;101947.41;;;12.61;88.06
8140;BME280;4111;50.972;7.072;2023-04-08T10:58:07;101950.59;;;12.58;87.38
8140;BME280;4111;50.972;7.072;2023-04-08T11:00:36;101949.91;;;12.62;86.80
8140;BME280;4111;50.972;7.072;2023-04-08T11:03:05;101950.28;;;12.66;86.45
8140;BME280;4111;50.972;7.072;2023-04-08T11:05:32;101948.84;;;12.63;85.57
8140;BME280;4111;50.972;7.072;2023-04-08T11:08:00;101953.00;;;12.66;85.23
8140;BME280;4111;50.972;7.072;2023-04-08T11:10:27;101948.59;;;12.65;84.44
8140;BME280;4111;50.972;7.072;2023-04-08T11:12:55;101950.28;;;12.66;85.11
8140;BME280;4111;50.972;7.072;2023-04-08T11:15:23;101947.78;;;12.64;84.40
8140;BME280;4111;50.972;7.072;2023-04-08T11:17:50;101942.88;;;12.55;84.18
8140;BME280;4111;50.972;7.072;2023-04-08T11:20:16;101949.84;;;12.50;83.20
8140;BME280;4111;50.972;7.072;2023-04-08T11:22:43;101943.00;;;12.60;83.21
8140;BME280;4111;50.972;7.072;2023-04-08T11:25:10;101938.03;;;12.57;83.29
8140;BME280;4111;50.972;7.072;2023-04-08T11:27:37;101942.06;;;12.54;83.16
8140;BME280;4111;50.972;7.072;2023-04-08T11:30:06;101941.13;;;12.60;83.17
8140;BME280;4111;50.972;7.072;2023-04-08T11:32:35;101929.38;;;12.60;83.29
8140;BME280;4111;50.972;7.072;2023-04-08T11:35:04;101935.59;;;12.67;83.60
8140;BME280;4111;50.972;7.072;2023-04-08T11:37:39;101944.28;;;12.76;83.62
8140;BME280;4111;50.972;7.072;2023-04-08T11:40:08;101941.19;;;12.72;82.64
8140;BME280;4111;50.972;7.072;2023-04-08T11:42:34;101947.56;;;12.66;82.17
8140;BME280;4111;50.972;7.072;2023-04-08T11:45:09;101941.63;;;12.69;81.96
8140;BME280;4111;50.972;7.072;2023-04-08T11:47:35;101946.00;;;12.58;78.86
8140;BME280;4111;50.972;7.072;2023-04-08T11:50:02;101939.72;;;12.39;77.29
8140;BME280;4111;50.972;7.072;2023-04-08T11:52:49;101942.28;;;12.53;77.12
8140;BME280;4111;50.972;7.072;2023-04-08T11:55:30;101944.31;;;12.57;77.21
8140;BME280;4111;50.972;7.072;2023-04-08T11:58:02;101939.56;;;12.53;77.48
8140;BME280;4111;50.972;7.072;2023-04-08T12:00:29;101941.84;;;12.67;78.76
8140;BME280;4111;50.972;7.072;2023-04-08T12:02:56;101937.53;;;12.78;78.63
8140;BME280;4111;50.972;7.072;2023-04-08T12:05:23;101930.97;;;12.67;76.35
8140;BME280;4111;50.972;7.072;2023-04-08T12:07:49;101941.03;;;12.67;75.38
8140;BME280;4111;50.972;7.072;2023-04-08T12:10:16;101937.56;;;12.60;74.63
8140;BME280;4111;50.972;7.072;2023-04-08T12:12:42;101945.28;;;12.63;75.07
8140;BME280;4111;50.972;7.072;2023-04-08T12:15:09;101938.50;;;12.54;74.48
8140;BME280;4111;50.972;7.072;2023-04-08T12:17:36;101940.72;;;12.45;74.11
8140;BME280;4111;50.972;7.072;2023-04-08T12:20:07;101939.78;;;12.51;73.46
8140;BME280;4111;50.972;7.072;2023-04-08T12:22:33;101943.63;;;12.62;73.12
8140;BME280;4111;50.972;7.072;2023-04-08T12:25:00;101945.56;;;12.73;72.72
8140;BME280;4111;50.972;7.072;2023-04-08T12:27:29;101949.06;;;12.92;72.88
8140;BME280;4111;50.972;7.072;2023-04-08T12:29:55;101945.94;;;12.77;71.59
8140;BME280;4111;50.972;7.072;2023-04-08T12:32:22;101949.38;;;12.72;71.21
8140;BME280;4111;50.972;7.072;2023-04-08T12:34:51;101951.38;;;12.46;70.00
8140;BME280;4111;50.972;7.072;2023-04-08T12:37:17;101955.31;;;12.32;70.95
8140;BME280;4111;50.972;7.072;2023-04-08T12:39:46;101950.44;;;12.22;70.46
8140;BME280;4111;50.972;7.072;2023-04-08T12:42:13;101948.22;;;12.31;71.80
8140;BME280;4111;50.972;7.072;2023-04-08T12:44:39;101951.53;;;12.33;71.76
8140;BME280;4111;50.972;7.072;2023-04-08T12:47:06;101948.50;;;12.41;71.70
8140;BME280;4111;50.972;7.072;2023-04-08T12:49:33;101945.00;;;12.53;71.78
8140;BME280;4111;50.972;7.072;2023-04-08T12:52:14;101939.44;;;12.78;72.61
8140;BME280;4111;50.972;7.072;2023-04-08T12:54:41;101944.00;;;12.96;72.66
8140;BME280;4111;50.972;7.072;2023-04-08T12:57:07;101933.56;;;13.04;71.95
8140;BME280;4111;50.972;7.072;2023-04-08T12:59:34;101932.84;;;13.09;72.49
8140;BME280;4111;50.972;7.072;2023-04-08T13:02:01;101927.69;;;13.19;72.60
8140;BME280;4111;50.972;7.072;2023-04-08T13:04:27;101927.78;;;13.24;72.48
8140;BME280;4111;50.972;7.072;2023-04-08T13:06:54;101925.22;;;13.29;72.67
8140;BME280;4111;50.972;7.072;2023-04-08T13:09:21;101927.00;;;13.36;72.83
8140;BME280;4111;50.972;7.072;2023-04-08T13:11:48;101932.22;;;13.37;72.81
8140;BME280;4111;50.972;7.072;2023-04-08T13:14:14;101930.56;;;13.36;72.03
8140;BME280;4111;50.972;7.072;2023-04-08T13:16:41;101929.50;;;13.37;71.70
8140;BME280;4111;50.972;7.072;2023-04-08T13:19:08;101938.16;;;13.46;71.39
8140;BME280;4111;50.972;7.072;2023-04-08T13:21:34;101938.53;;;13.49;71.39
8140;BME280;4111;50.972;7.072;2023-04-08T13:24:01;101943.63;;;13.46;71.13
8140;BME280;4111;50.972;7.072;2023-04-08T13:26:27;101944.81;;;13.50;71.09
8140;BME280;4111;50.972;7.072;2023-04-08T13:28:54;101941.13;;;13.44;70.07
8140;BME280;4111;50.972;7.072;2023-04-08T13:31:23;101937.41;;;13.15;68.71
8140;BME280;4111;50.972;7.072;2023-04-08T13:33:50;101937.63;;;13.14;68.39
8140;BME280;4111;50.972;7.072;2023-04-08T13:36:16;101941.31;;;12.77;67.47